Terminal Aerodrome Forecast
Issued by NWS

Home | Current Version | Previous Version | Text Only | Print | Product List | Glossary On
Versions: 1 2 3 4 5 6 7 8 9 10 11 12 13 14 15
812
FTUS42 TJSJ 191135
TAFJBQ
TAF
TJBQ 191135Z 1912/2012 11005KT 5SM HZ SCT040
     FM191400 09013G23KT 6SM HZ FEW030
     FM191800 09017G27KT 6SM HZ SCT030 SCT040
     FM192100 11006KT P6SM FEW030
      AMD NOT SKED 2002/2011=

USA.gov is the U.S. government's official web portal to all federal, state and local government web resources and services.